ROMMA est une association bénévole à but non lucratif. Votre soutien est indispensable : ADHERER à ROMMA ou FAIRE un DON

L'Isle-sur-la-Sorgue - (84, Vaucluse)

Sillon Rhodanien (65 m)   Longitude: 5°02'   Latitude: 43°55' Station partenaire n°71
 

Détail journalier du     <<     >>

Température Precipitation Humidité Pression Vent Dir Rafale Dir. rafale Ensol.
Heure (°C) (mm) (%) (hPa) (km/h) (km/h) (min)
01:00 17.20.49510112SO6OSO0
02:00 17.30961011000
03:00 17.1096101005O0
04:00 16.20961010000
05:00 16.6096100906ENE0
06:00 15.9097100905NO0
07:00 15.6096100903NO0
08:00 14.80.296100903NO0
09:00 14.9097101003NO0
10:00 16.509610102NE8NE30
11:00 18.908310103N15NE60
12:00 20.607010107N23NNE60
13:00 21.706210109N32NO60
14:00 22.3058101011N44NE60
15:00 22.4057101011N37NE60
16:00 22.8054101012N45NNE60
17:00 22.4054101014N47ENE60
18:00 21.6056101015N42NE60
19:00 20.4060101013N40ENE0
20:00 19.4062101111N39NNE0
21:00 18.9066101212N37NNE0
22:00 17.8066101314N44NE0
23:00 17.5059101414N45NE0
minuit 16.8062101511N44NE0

Graphique du 02-10-2019

 

Serveur OMMA